sensor_id;sensor_type;location;lat;lon;timestamp;temperature;humidity
51884;DHT22;37915;53.254;6.598;2022-07-29T00:00:24;14.10;99.90
51884;DHT22;37915;53.254;6.598;2022-07-29T00:02:50;14.10;99.90
51884;DHT22;37915;53.254;6.598;2022-07-29T00:05:15;14.20;99.90
51884;DHT22;37915;53.254;6.598;2022-07-29T00:07:41;14.20;99.90
51884;DHT22;37915;53.254;6.598;2022-07-29T00:10:06;15.00;99.90
51884;DHT22;37915;53.254;6.598;2022-07-29T00:12:32;14.20;99.90
51884;DHT22;37915;53.254;6.598;2022-07-29T00:14:59;14.20;99.90
51884;DHT22;37915;53.254;6.598;2022-07-29T00:17:25;14.20;99.90
51884;DHT22;37915;53.254;6.598;2022-07-29T00:19:50;14.20;99.90
51884;DHT22;37915;53.254;6.598;2022-07-29T00:22:16;14.20;99.90
51884;DHT22;37915;53.254;6.598;2022-07-29T00:24:42;14.30;99.90
51884;DHT22;37915;53.254;6.598;2022-07-29T00:27:08;14.30;99.90
51884;DHT22;37915;53.254;6.598;2022-07-29T00:29:33;14.30;99.90
51884;DHT22;37915;53.254;6.598;2022-07-29T00:31:59;14.40;99.90
51884;DHT22;37915;53.254;6.598;2022-07-29T00:34:24;14.40;99.90
51884;DHT22;37915;53.254;6.598;2022-07-29T00:37:09;14.40;99.90
51884;DHT22;37915;53.254;6.598;2022-07-29T00:39:34;14.40;99.90
51884;DHT22;37915;53.254;6.598;2022-07-29T00:42:02;14.40;99.90
51884;DHT22;37915;53.254;6.598;2022-07-29T00:44:27;14.40;99.90
51884;DHT22;37915;53.254;6.598;2022-07-29T00:46:53;14.40;99.90
51884;DHT22;37915;53.254;6.598;2022-07-29T00:49:18;14.50;99.90
51884;DHT22;37915;53.254;6.598;2022-07-29T00:51:44;14.50;99.90
51884;DHT22;37915;53.254;6.598;2022-07-29T00:54:10;14.50;99.90
51884;DHT22;37915;53.254;6.598;2022-07-29T00:56:35;14.50;99.90
51884;DHT22;37915;53.254;6.598;2022-07-29T00:59:01;14.50;99.90
51884;DHT22;37915;53.254;6.598;2022-07-29T01:01:26;14.60;99.90
51884;DHT22;37915;53.254;6.598;2022-07-29T01:03:53;14.60;99.90
51884;DHT22;37915;53.254;6.598;2022-07-29T01:06:19;14.60;99.90
51884;DHT22;37915;53.254;6.598;2022-07-29T01:08:45;14.60;99.90
51884;DHT22;37915;53.254;6.598;2022-07-29T01:11:12;14.70;99.90
51884;DHT22;37915;53.254;6.598;2022-07-29T01:13:38;14.70;99.90
51884;DHT22;37915;53.254;6.598;2022-07-29T01:16:10;14.70;99.90
51884;DHT22;37915;53.254;6.598;2022-07-29T01:18:39;14.70;99.90
51884;DHT22;37915;53.254;6.598;2022-07-29T01:26:28;14.70;99.90
51884;DHT22;37915;53.254;6.598;2022-07-29T01:28:59;14.70;99.90
51884;DHT22;37915;53.254;6.598;2022-07-29T01:31:35;14.80;99.90
51884;DHT22;37915;53.254;6.598;2022-07-29T01:34:05;14.80;99.90
51884;DHT22;37915;53.254;6.598;2022-07-29T01:39:08;14.70;99.90
51884;DHT22;37915;53.254;6.598;2022-07-29T01:41:36;14.80;99.90
51884;DHT22;37915;53.254;6.598;2022-07-29T01:44:06;14.80;99.90
51884;DHT22;37915;53.254;6.598;2022-07-29T01:46:35;14.70;99.90
51884;DHT22;37915;53.254;6.598;2022-07-29T01:49:06;14.70;99.90
51884;DHT22;37915;53.254;6.598;2022-07-29T01:51:36;14.70;99.90
51884;DHT22;37915;53.254;6.598;2022-07-29T01:57:04;14.70;99.90
51884;DHT22;37915;53.254;6.598;2022-07-29T01:59:32;14.70;99.90
51884;DHT22;37915;53.254;6.598;2022-07-29T02:01:58;14.70;99.90
51884;DHT22;37915;53.254;6.598;2022-07-29T02:04:26;14.70;99.90
51884;DHT22;37915;53.254;6.598;2022-07-29T02:06:53;14.70;99.90
51884;DHT22;37915;53.254;6.598;2022-07-29T02:09:19;14.70;99.90
51884;DHT22;37915;53.254;6.598;2022-07-29T02:11:51;15.60;99.90
51884;DHT22;37915;53.254;6.598;2022-07-29T02:14:21;14.70;99.90
51884;DHT22;37915;53.254;6.598;2022-07-29T02:16:48;14.70;99.90
51884;DHT22;37915;53.254;6.598;2022-07-29T02:19:16;14.80;99.90
51884;DHT22;37915;53.254;6.598;2022-07-29T02:21:42;14.70;99.90
51884;DHT22;37915;53.254;6.598;2022-07-29T02:24:09;14.80;99.90
51884;DHT22;37915;53.254;6.598;2022-07-29T02:26:36;14.80;99.90
51884;DHT22;37915;53.254;6.598;2022-07-29T02:29:02;14.80;99.90
51884;DHT22;37915;53.254;6.598;2022-07-29T02:31:29;14.80;99.90
51884;DHT22;37915;53.254;6.598;2022-07-29T02:33:56;14.80;99.90
51884;DHT22;37915;53.254;6.598;2022-07-29T02:36:22;14.80;99.90
51884;DHT22;37915;53.254;6.598;2022-07-29T02:38:49;14.80;99.90
51884;DHT22;37915;53.254;6.598;2022-07-29T02:41:20;14.80;99.90
51884;DHT22;37915;53.254;6.598;2022-07-29T02:43:50;14.80;99.90
51884;DHT22;37915;53.254;6.598;2022-07-29T02:46:19;14.80;99.90
51884;DHT22;37915;53.254;6.598;2022-07-29T02:48:48;14.80;99.90
51884;DHT22;37915;53.254;6.598;2022-07-29T02:51:23;14.80;99.90
51884;DHT22;37915;53.254;6.598;2022-07-29T02:53:51;14.80;99.90
51884;DHT22;37915;53.254;6.598;2022-07-29T02:56:19;14.80;99.90
51884;DHT22;37915;53.254;6.598;2022-07-29T02:58:55;14.80;99.90
51884;DHT22;37915;53.254;6.598;2022-07-29T03:01:25;14.80;99.90
51884;DHT22;37915;53.254;6.598;2022-07-29T03:03:53;14.80;99.90
51884;DHT22;37915;53.254;6.598;2022-07-29T03:06:20;14.80;99.90
51884;DHT22;37915;53.254;6.598;2022-07-29T03:08:46;14.70;99.90
51884;DHT22;37915;53.254;6.598;2022-07-29T03:11:12;14.70;99.90
51884;DHT22;37915;53.254;6.598;2022-07-29T03:13:39;14.70;99.90
51884;DHT22;37915;53.254;6.598;2022-07-29T03:16:04;14.70;99.90
51884;DHT22;37915;53.254;6.598;2022-07-29T03:18:30;14.70;99.90
51884;DHT22;37915;53.254;6.598;2022-07-29T03:20:56;14.70;99.90
51884;DHT22;37915;53.254;6.598;2022-07-29T03:23:22;14.70;99.90
51884;DHT22;37915;53.254;6.598;2022-07-29T03:25:49;14.70;99.90
51884;DHT22;37915;53.254;6.598;2022-07-29T03:28:15;14.70;99.90
51884;DHT22;37915;53.254;6.598;2022-07-29T03:30:40;14.70;99.90
51884;DHT22;37915;53.254;6.598;2022-07-29T03:33:06;14.70;99.90
51884;DHT22;37915;53.254;6.598;2022-07-29T03:35:31;14.70;99.90
51884;DHT22;37915;53.254;6.598;2022-07-29T03:37:57;14.70;99.90
51884;DHT22;37915;53.254;6.598;2022-07-29T03:40:43;14.70;99.90
51884;DHT22;37915;53.254;6.598;2022-07-29T03:43:10;14.70;99.90
51884;DHT22;37915;53.254;6.598;2022-07-29T03:45:36;14.60;99.90
51884;DHT22;37915;53.254;6.598;2022-07-29T03:48:05;14.70;99.90
51884;DHT22;37915;53.254;6.598;2022-07-29T03:50:32;14.60;99.90
51884;DHT22;37915;53.254;6.598;2022-07-29T03:52:59;14.60;99.90
51884;DHT22;37915;53.254;6.598;2022-07-29T03:55:25;14.60;99.90
51884;DHT22;37915;53.254;6.598;2022-07-29T03:57:51;14.70;99.90
51884;DHT22;37915;53.254;6.598;2022-07-29T04:00:17;14.60;99.90
51884;DHT22;37915;53.254;6.598;2022-07-29T04:02:43;14.70;99.90
51884;DHT22;37915;53.254;6.598;2022-07-29T04:05:13;14.70;99.90
51884;DHT22;37915;53.254;6.598;2022-07-29T04:07:40;14.70;99.90
51884;DHT22;37915;53.254;6.598;2022-07-29T04:10:05;14.70;99.90
51884;DHT22;37915;53.254;6.598;2022-07-29T04:12:31;14.60;99.90
51884;DHT22;37915;53.254;6.598;2022-07-29T04:14:57;14.70;99.90
51884;DHT22;37915;53.254;6.598;2022-07-29T04:17:22;14.60;99.90
51884;DHT22;37915;53.254;6.598;2022-07-29T04:19:48;14.60;99.90
51884;DHT22;37915;53.254;6.598;2022-07-29T04:22:13;14.60;99.90
51884;DHT22;37915;53.254;6.598;2022-07-29T04:24:39;14.60;99.90
51884;DHT22;37915;53.254;6.598;2022-07-29T04:27:05;14.70;99.90
51884;DHT22;37915;53.254;6.598;2022-07-29T04:29:30;14.70;99.90
51884;DHT22;37915;53.254;6.598;2022-07-29T04:31:56;14.70;99.90
51884;DHT22;37915;53.254;6.598;2022-07-29T04:34:21;14.80;99.90
51884;DHT22;37915;53.254;6.598;2022-07-29T04:36:47;14.80;99.90
51884;DHT22;37915;53.254;6.598;2022-07-29T04:39:12;14.80;99.90
51884;DHT22;37915;53.254;6.598;2022-07-29T04:41:38;14.80;99.90
51884;DHT22;37915;53.254;6.598;2022-07-29T04:44:04;14.80;99.90
51884;DHT22;37915;53.254;6.598;2022-07-29T04:46:31;14.90;99.90
51884;DHT22;37915;53.254;6.598;2022-07-29T04:48:56;14.90;99.90
51884;DHT22;37915;53.254;6.598;2022-07-29T04:51:22;14.90;99.90
51884;DHT22;37915;53.254;6.598;2022-07-29T04:53:47;14.90;99.90
51884;DHT22;37915;53.254;6.598;2022-07-29T04:56:13;15.00;99.90
51884;DHT22;37915;53.254;6.598;2022-07-29T04:58:38;15.00;99.90
51884;DHT22;37915;53.254;6.598;2022-07-29T05:01:04;15.00;99.90
51884;DHT22;37915;53.254;6.598;2022-07-29T05:03:30;15.00;99.90
51884;DHT22;37915;53.254;6.598;2022-07-29T05:05:55;15.00;99.90
51884;DHT22;37915;53.254;6.598;2022-07-29T05:08:21;15.00;99.90
51884;DHT22;37915;53.254;6.598;2022-07-29T05:10:47;15.00;99.90
51884;DHT22;37915;53.254;6.598;2022-07-29T05:13:12;15.00;99.90
51884;DHT22;37915;53.254;6.598;2022-07-29T05:15:38;15.00;99.90
51884;DHT22;37915;53.254;6.598;2022-07-29T05:18:03;15.00;99.90
51884;DHT22;37915;53.254;6.598;2022-07-29T05:20:30;15.00;99.90
51884;DHT22;37915;53.254;6.598;2022-07-29T05:22:56;15.10;99.90
51884;DHT22;37915;53.254;6.598;2022-07-29T05:25:21;15.10;99.90
51884;DHT22;37915;53.254;6.598;2022-07-29T05:27:47;15.10;99.90
51884;DHT22;37915;53.254;6.598;2022-07-29T05:30:13;15.20;99.90
51884;DHT22;37915;53.254;6.598;2022-07-29T05:32:38;15.20;99.90
51884;DHT22;37915;53.254;6.598;2022-07-29T05:35:04;15.20;99.90
51884;DHT22;37915;53.254;6.598;2022-07-29T05:37:29;15.30;99.90
51884;DHT22;37915;53.254;6.598;2022-07-29T05:39:55;15.30;99.90
51884;DHT22;37915;53.254;6.598;2022-07-29T05:42:21;15.30;99.90
51884;DHT22;37915;53.254;6.598;2022-07-29T05:44:46;15.30;99.90
51884;DHT22;37915;53.254;6.598;2022-07-29T05:47:12;15.40;99.90
51884;DHT22;37915;53.254;6.598;2022-07-29T05:49:38;15.50;99.90
51884;DHT22;37915;53.254;6.598;2022-07-29T05:52:04;15.50;99.90
51884;DHT22;37915;53.254;6.598;2022-07-29T05:54:29;15.50;99.90
51884;DHT22;37915;53.254;6.598;2022-07-29T05:56:55;15.60;99.90
51884;DHT22;37915;53.254;6.598;2022-07-29T05:59:21;15.60;99.90
51884;DHT22;37915;53.254;6.598;2022-07-29T06:01:47;15.70;99.90
51884;DHT22;37915;53.254;6.598;2022-07-29T06:04:12;15.70;99.90
51884;DHT22;37915;53.254;6.598;2022-07-29T06:06:38;15.70;99.90
51884;DHT22;37915;53.254;6.598;2022-07-29T06:09:03;15.80;99.90
51884;DHT22;37915;53.254;6.598;2022-07-29T06:11:29;15.80;99.90
51884;DHT22;37915;53.254;6.598;2022-07-29T06:13:55;15.80;99.90
51884;DHT22;37915;53.254;6.598;2022-07-29T06:16:20;15.80;99.90
51884;DHT22;37915;53.254;6.598;2022-07-29T06:18:46;15.90;99.90
51884;DHT22;37915;53.254;6.598;2022-07-29T06:21:12;15.90;99.90
51884;DHT22;37915;53.254;6.598;2022-07-29T06:23:38;15.90;99.90
51884;DHT22;37915;53.254;6.598;2022-07-29T06:26:03;16.00;99.90
51884;DHT22;37915;53.254;6.598;2022-07-29T06:28:29;16.00;99.90
51884;DHT22;37915;53.254;6.598;2022-07-29T06:30:54;16.10;99.90
51884;DHT22;37915;53.254;6.598;2022-07-29T06:33:20;16.10;99.90
51884;DHT22;37915;53.254;6.598;2022-07-29T06:35:45;16.20;99.90
51884;DHT22;37915;53.254;6.598;2022-07-29T06:38:14;16.20;99.90
51884;DHT22;37915;53.254;6.598;2022-07-29T06:40:43;16.20;99.90
51884;DHT22;37915;53.254;6.598;2022-07-29T06:43:38;16.30;99.90
51884;DHT22;37915;53.254;6.598;2022-07-29T06:46:08;16.40;99.90
51884;DHT22;37915;53.254;6.598;2022-07-29T06:48:34;16.40;99.90
51884;DHT22;37915;53.254;6.598;2022-07-29T06:51:00;16.50;99.90
51884;DHT22;37915;53.254;6.598;2022-07-29T06:53:26;16.60;99.90
51884;DHT22;37915;53.254;6.598;2022-07-29T06:55:52;16.60;99.90
51884;DHT22;37915;53.254;6.598;2022-07-29T06:58:17;16.70;99.90
51884;DHT22;37915;53.254;6.598;2022-07-29T07:00:49;16.70;99.90
51884;DHT22;37915;53.254;6.598;2022-07-29T07:03:16;16.80;99.90
51884;DHT22;37915;53.254;6.598;2022-07-29T07:05:42;16.80;99.90
51884;DHT22;37915;53.254;6.598;2022-07-29T07:08:07;16.90;99.90
51884;DHT22;37915;53.254;6.598;2022-07-29T07:10:33;16.90;99.90
51884;DHT22;37915;53.254;6.598;2022-07-29T07:12:59;17.00;99.90
51884;DHT22;37915;53.254;6.598;2022-07-29T07:15:24;17.00;99.90
51884;DHT22;37915;53.254;6.598;2022-07-29T07:17:50;17.10;99.90
51884;DHT22;37915;53.254;6.598;2022-07-29T07:20:16;17.10;99.90
51884;DHT22;37915;53.254;6.598;2022-07-29T07:22:42;17.20;99.90
51884;DHT22;37915;53.254;6.598;2022-07-29T07:25:07;17.30;99.90
51884;DHT22;37915;53.254;6.598;2022-07-29T07:27:34;17.30;99.90
51884;DHT22;37915;53.254;6.598;2022-07-29T07:29:59;17.40;99.90
51884;DHT22;37915;53.254;6.598;2022-07-29T07:32:25;17.40;99.90
51884;DHT22;37915;53.254;6.598;2022-07-29T07:34:50;17.40;99.90
51884;DHT22;37915;53.254;6.598;2022-07-29T07:37:16;17.40;99.90
51884;DHT22;37915;53.254;6.598;2022-07-29T07:39:44;17.50;99.90
51884;DHT22;37915;53.254;6.598;2022-07-29T07:42:09;17.50;99.90
51884;DHT22;37915;53.254;6.598;2022-07-29T07:44:38;17.50;99.90
51884;DHT22;37915;53.254;6.598;2022-07-29T07:47:03;17.60;99.90
51884;DHT22;37915;53.254;6.598;2022-07-29T07:49:29;17.60;99.90
51884;DHT22;37915;53.254;6.598;2022-07-29T07:51:54;17.70;99.90
51884;DHT22;37915;53.254;6.598;2022-07-29T07:54:20;17.70;99.90
51884;DHT22;37915;53.254;6.598;2022-07-29T07:56:45;17.80;99.90
51884;DHT22;37915;53.254;6.598;2022-07-29T07:59:14;17.80;99.90
51884;DHT22;37915;53.254;6.598;2022-07-29T08:01:39;17.90;99.90
51884;DHT22;37915;53.254;6.598;2022-07-29T08:04:05;17.90;99.90
51884;DHT22;37915;53.254;6.598;2022-07-29T08:06:31;18.00;99.90
51884;DHT22;37915;53.254;6.598;2022-07-29T08:08:56;18.00;99.90
51884;DHT22;37915;53.254;6.598;2022-07-29T08:11:22;18.00;99.90
51884;DHT22;37915;53.254;6.598;2022-07-29T08:13:48;18.10;99.90
51884;DHT22;37915;53.254;6.598;2022-07-29T08:16:13;18.10;99.90
51884;DHT22;37915;53.254;6.598;2022-07-29T08:18:41;18.10;99.90
51884;DHT22;37915;53.254;6.598;2022-07-29T08:21:06;18.10;99.90
51884;DHT22;37915;53.254;6.598;2022-07-29T08:23:32;18.10;99.90
51884;DHT22;37915;53.254;6.598;2022-07-29T08:26:05;18.00;99.90
51884;DHT22;37915;53.254;6.598;2022-07-29T08:28:31;18.10;99.90
51884;DHT22;37915;53.254;6.598;2022-07-29T08:30:56;18.00;99.90
51884;DHT22;37915;53.254;6.598;2022-07-29T08:33:22;18.10;99.90
51884;DHT22;37915;53.254;6.598;2022-07-29T08:35:48;18.20;99.90
51884;DHT22;37915;53.254;6.598;2022-07-29T08:38:15;18.30;99.90
51884;DHT22;37915;53.254;6.598;2022-07-29T08:40:40;18.40;99.90
51884;DHT22;37915;53.254;6.598;2022-07-29T08:43:09;18.60;99.90
51884;DHT22;37915;53.254;6.598;2022-07-29T08:45:42;18.70;99.90
51884;DHT22;37915;53.254;6.598;2022-07-29T08:48:09;18.70;99.90
51884;DHT22;37915;53.254;6.598;2022-07-29T08:50:35;18.70;99.90
51884;DHT22;37915;53.254;6.598;2022-07-29T08:53:00;18.60;99.90
51884;DHT22;37915;53.254;6.598;2022-07-29T08:55:26;18.70;99.90
51884;DHT22;37915;53.254;6.598;2022-07-29T08:57:52;18.80;99.90
51884;DHT22;37915;53.254;6.598;2022-07-29T09:00:18;18.80;99.90
51884;DHT22;37915;53.254;6.598;2022-07-29T09:02:45;18.90;99.90
51884;DHT22;37915;53.254;6.598;2022-07-29T09:05:13;18.90;99.90
51884;DHT22;37915;53.254;6.598;2022-07-29T09:07:38;18.90;99.90
51884;DHT22;37915;53.254;6.598;2022-07-29T09:10:05;18.90;99.90
51884;DHT22;37915;53.254;6.598;2022-07-29T09:12:30;18.90;99.90
51884;DHT22;37915;53.254;6.598;2022-07-29T09:14:56;18.90;99.90
51884;DHT22;37915;53.254;6.598;2022-07-29T09:20:13;18.90;99.90
51884;DHT22;37915;53.254;6.598;2022-07-29T09:22:39;18.80;99.90
51884;DHT22;37915;53.254;6.598;2022-07-29T09:25:05;18.70;99.90
51884;DHT22;37915;53.254;6.598;2022-07-29T09:27:31;18.70;99.90
51884;DHT22;37915;53.254;6.598;2022-07-29T09:30:01;18.60;99.90
51884;DHT22;37915;53.254;6.598;2022-07-29T09:32:27;18.60;99.90
51884;DHT22;37915;53.254;6.598;2022-07-29T09:37:37;18.80;99.90
51884;DHT22;37915;53.254;6.598;2022-07-29T09:40:11;18.80;99.90
51884;DHT22;37915;53.254;6.598;2022-07-29T09:42:36;18.80;99.90
51884;DHT22;37915;53.254;6.598;2022-07-29T09:45:02;18.80;99.90
51884;DHT22;37915;53.254;6.598;2022-07-29T09:47:49;18.90;99.90
51884;DHT22;37915;53.254;6.598;2022-07-29T09:50:14;18.90;99.90
51884;DHT22;37915;53.254;6.598;2022-07-29T09:52:50;18.90;99.90
51884;DHT22;37915;53.254;6.598;2022-07-29T09:55:16;18.90;99.90
51884;DHT22;37915;53.254;6.598;2022-07-29T09:57:42;19.00;99.90
51884;DHT22;37915;53.254;6.598;2022-07-29T10:00:10;19.00;99.90
51884;DHT22;37915;53.254;6.598;2022-07-29T10:02:37;19.00;99.90
51884;DHT22;37915;53.254;6.598;2022-07-29T10:05:15;19.00;99.90
51884;DHT22;37915;53.254;6.598;2022-07-29T10:10:35;19.00;99.90
51884;DHT22;37915;53.254;6.598;2022-07-29T10:13:04;19.10;99.90
51884;DHT22;37915;53.254;6.598;2022-07-29T10:15:31;19.20;99.90
51884;DHT22;37915;53.254;6.598;2022-07-29T10:17:57;19.20;99.90
51884;DHT22;37915;53.254;6.598;2022-07-29T10:20:24;19.30;99.90
51884;DHT22;37915;53.254;6.598;2022-07-29T10:22:50;19.20;99.90
51884;DHT22;37915;53.254;6.598;2022-07-29T10:25:16;19.20;99.90
51884;DHT22;37915;53.254;6.598;2022-07-29T10:27:43;19.30;99.90
51884;DHT22;37915;53.254;6.598;2022-07-29T10:30:09;19.30;99.90
51884;DHT22;37915;53.254;6.598;2022-07-29T10:40:26;19.30;99.90
51884;DHT22;37915;53.254;6.598;2022-07-29T10:43:16;19.30;99.90
51884;DHT22;37915;53.254;6.598;2022-07-29T10:45:44;19.50;99.90
51884;DHT22;37915;53.254;6.598;2022-07-29T10:48:09;19.60;99.90
51884;DHT22;37915;53.254;6.598;2022-07-29T10:53:21;19.80;99.90
51884;DHT22;37915;53.254;6.598;2022-07-29T10:55:47;19.80;99.90
51884;DHT22;37915;53.254;6.598;2022-07-29T11:00:44;20.10;99.90
51884;DHT22;37915;53.254;6.598;2022-07-29T11:03:12;20.10;99.90
51884;DHT22;37915;53.254;6.598;2022-07-29T11:05:55;20.10;99.90
51884;DHT22;37915;53.254;6.598;2022-07-29T11:08:21;20.10;99.90
51884;DHT22;37915;53.254;6.598;2022-07-29T11:10:52;20.10;99.90
51884;DHT22;37915;53.254;6.598;2022-07-29T11:16:02;20.10;99.90
51884;DHT22;37915;53.254;6.598;2022-07-29T11:18:28;20.10;99.90
51884;DHT22;37915;53.254;6.598;2022-07-29T11:20:53;20.00;99.90
51884;DHT22;37915;53.254;6.598;2022-07-29T11:23:29;20.00;99.90
51884;DHT22;37915;53.254;6.598;2022-07-29T11:28:49;19.90;99.90
51884;DHT22;37915;53.254;6.598;2022-07-29T11:31:17;19.90;99.90
51884;DHT22;37915;53.254;6.598;2022-07-29T11:33:44;19.90;99.90
51884;DHT22;37915;53.254;6.598;2022-07-29T11:36:10;19.90;99.90
51884;DHT22;37915;53.254;6.598;2022-07-29T11:38:36;19.90;99.90
51884;DHT22;37915;53.254;6.598;2022-07-29T11:43:55;19.80;99.90
51884;DHT22;37915;53.254;6.598;2022-07-29T11:49:06;19.90;99.90
51884;DHT22;37915;53.254;6.598;2022-07-29T11:51:34;20.00;99.90
51884;DHT22;37915;53.254;6.598;2022-07-29T11:54:00;20.10;99.90
51884;DHT22;37915;53.254;6.598;2022-07-29T11:56:26;20.20;99.90
51884;DHT22;37915;53.254;6.598;2022-07-29T11:59:05;20.40;99.90
51884;DHT22;37915;53.254;6.598;2022-07-29T12:01:31;20.60;99.90
51884;DHT22;37915;53.254;6.598;2022-07-29T12:04:04;21.00;99.90
51884;DHT22;37915;53.254;6.598;2022-07-29T12:06:30;21.40;99.90
51884;DHT22;37915;53.254;6.598;2022-07-29T12:08:56;21.60;99.90
51884;DHT22;37915;53.254;6.598;2022-07-29T12:11:21;21.60;99.90
51884;DHT22;37915;53.254;6.598;2022-07-29T12:13:47;21.70;99.90
51884;DHT22;37915;53.254;6.598;2022-07-29T12:16:13;21.80;99.90
51884;DHT22;37915;53.254;6.598;2022-07-29T12:18:38;21.90;99.90
51884;DHT22;37915;53.254;6.598;2022-07-29T12:21:04;22.10;99.90
51884;DHT22;37915;53.254;6.598;2022-07-29T12:23:30;22.20;99.90
51884;DHT22;37915;53.254;6.598;2022-07-29T12:25:57;22.30;99.90
51884;DHT22;37915;53.254;6.598;2022-07-29T12:28:22;22.40;99.90
51884;DHT22;37915;53.254;6.598;2022-07-29T12:30:48;22.60;99.90
51884;DHT22;37915;53.254;6.598;2022-07-29T12:33:24;22.70;99.90
51884;DHT22;37915;53.254;6.598;2022-07-29T12:35:51;22.80;99.90
51884;DHT22;37915;53.254;6.598;2022-07-29T12:38:17;22.80;99.90
51884;DHT22;37915;53.254;6.598;2022-07-29T12:40:43;22.80;99.90
51884;DHT22;37915;53.254;6.598;2022-07-29T12:43:11;22.80;99.90
51884;DHT22;37915;53.254;6.598;2022-07-29T12:45:37;22.80;99.90
51884;DHT22;37915;53.254;6.598;2022-07-29T12:48:03;22.80;99.90
51884;DHT22;37915;53.254;6.598;2022-07-29T12:50:29;22.80;99.90
51884;DHT22;37915;53.254;6.598;2022-07-29T12:53:07;22.70;99.90
51884;DHT22;37915;53.254;6.598;2022-07-29T12:55:43;22.60;99.90
51884;DHT22;37915;53.254;6.598;2022-07-29T12:58:09;22.60;99.90
51884;DHT22;37915;53.254;6.598;2022-07-29T13:00:35;22.70;99.90
51884;DHT22;37915;53.254;6.598;2022-07-29T13:03:00;23.00;99.90
51884;DHT22;37915;53.254;6.598;2022-07-29T13:05:39;23.30;99.90
51884;DHT22;37915;53.254;6.598;2022-07-29T13:08:15;23.40;99.90
51884;DHT22;37915;53.254;6.598;2022-07-29T13:10:41;23.40;99.90
51884;DHT22;37915;53.254;6.598;2022-07-29T13:13:11;23.60;99.90
51884;DHT22;37915;53.254;6.598;2022-07-29T13:15:37;23.60;99.90
51884;DHT22;37915;53.254;6.598;2022-07-29T13:18:04;23.70;99.90
51884;DHT22;37915;53.254;6.598;2022-07-29T13:20:30;23.90;99.90
51884;DHT22;37915;53.254;6.598;2022-07-29T13:22:56;24.00;99.90
51884;DHT22;37915;53.254;6.598;2022-07-29T19:28:46;20.20;99.90
51884;DHT22;37915;53.254;6.598;2022-07-29T19:31:11;20.20;99.90
51884;DHT22;37915;53.254;6.598;2022-07-29T19:33:38;20.10;99.90
51884;DHT22;37915;53.254;6.598;2022-07-29T19:36:03;20.00;99.90
51884;DHT22;37915;53.254;6.598;2022-07-29T19:38:29;19.90;99.90
51884;DHT22;37915;53.254;6.598;2022-07-29T19:40:55;19.80;99.90
51884;DHT22;37915;53.254;6.598;2022-07-29T19:43:20;19.70;99.90
51884;DHT22;37915;53.254;6.598;2022-07-29T19:45:46;19.70;99.90
51884;DHT22;37915;53.254;6.598;2022-07-29T19:48:11;19.60;99.90
51884;DHT22;37915;53.254;6.598;2022-07-29T19:50:37;19.50;99.90
51884;DHT22;37915;53.254;6.598;2022-07-29T19:53:03;19.50;99.90
51884;DHT22;37915;53.254;6.598;2022-07-29T19:55:28;19.40;99.90
51884;DHT22;37915;53.254;6.598;2022-07-29T19:57:54;19.40;99.90
51884;DHT22;37915;53.254;6.598;2022-07-29T20:00:20;19.30;99.90
51884;DHT22;37915;53.254;6.598;2022-07-29T20:02:45;19.30;99.90
51884;DHT22;37915;53.254;6.598;2022-07-29T20:05:11;19.20;99.90
51884;DHT22;37915;53.254;6.598;2022-07-29T20:07:37;19.10;99.90
51884;DHT22;37915;53.254;6.598;2022-07-29T20:10:03;19.00;99.90
51884;DHT22;37915;53.254;6.598;2022-07-29T20:12:29;19.00;99.90
51884;DHT22;37915;53.254;6.598;2022-07-29T20:14:55;18.90;99.90
51884;DHT22;37915;53.254;6.598;2022-07-29T20:17:20;19.50;99.90
51884;DHT22;37915;53.254;6.598;2022-07-29T20:19:47;18.70;99.90
51884;DHT22;37915;53.254;6.598;2022-07-29T20:22:14;18.60;99.90
51884;DHT22;37915;53.254;6.598;2022-07-29T20:24:39;18.60;99.90
51884;DHT22;37915;53.254;6.598;2022-07-29T20:27:06;18.50;99.90
51884;DHT22;37915;53.254;6.598;2022-07-29T20:29:33;18.40;99.90
51884;DHT22;37915;53.254;6.598;2022-07-29T20:31:58;18.40;99.90
51884;DHT22;37915;53.254;6.598;2022-07-29T20:34:24;18.30;99.90
51884;DHT22;37915;53.254;6.598;2022-07-29T20:36:50;18.30;99.90
51884;DHT22;37915;53.254;6.598;2022-07-29T20:39:15;18.20;99.90
51884;DHT22;37915;53.254;6.598;2022-07-29T20:41:41;18.10;99.90
51884;DHT22;37915;53.254;6.598;2022-07-29T20:44:06;18.10;99.90
51884;DHT22;37915;53.254;6.598;2022-07-29T20:46:32;18.00;99.90
51884;DHT22;37915;53.254;6.598;2022-07-29T20:48:57;18.00;99.90
51884;DHT22;37915;53.254;6.598;2022-07-29T20:51:23;17.90;99.90
51884;DHT22;37915;53.254;6.598;2022-07-29T20:53:49;17.90;99.90
51884;DHT22;37915;53.254;6.598;2022-07-29T20:56:15;17.80;99.90
51884;DHT22;37915;53.254;6.598;2022-07-29T20:58:41;17.70;99.90
51884;DHT22;37915;53.254;6.598;2022-07-29T21:01:07;17.70;99.90
51884;DHT22;37915;53.254;6.598;2022-07-29T21:03:33;17.60;99.90
51884;DHT22;37915;53.254;6.598;2022-07-29T21:05:59;17.60;99.90
51884;DHT22;37915;53.254;6.598;2022-07-29T21:08:25;17.60;99.90
51884;DHT22;37915;53.254;6.598;2022-07-29T21:10:50;17.60;99.90
51884;DHT22;37915;53.254;6.598;2022-07-29T21:13:17;17.50;99.90
51884;DHT22;37915;53.254;6.598;2022-07-29T21:15:45;17.50;99.90
51884;DHT22;37915;53.254;6.598;2022-07-29T21:18:14;17.50;99.90
51884;DHT22;37915;53.254;6.598;2022-07-29T21:20:52;17.50;99.90
51884;DHT22;37915;53.254;6.598;2022-07-29T21:23:18;17.40;99.90
51884;DHT22;37915;53.254;6.598;2022-07-29T21:25:43;17.40;99.90
51884;DHT22;37915;53.254;6.598;2022-07-29T21:28:09;17.40;99.90
51884;DHT22;37915;53.254;6.598;2022-07-29T21:30:57;17.90;99.90
51884;DHT22;37915;53.254;6.598;2022-07-29T21:33:24;17.30;99.90
51884;DHT22;37915;53.254;6.598;2022-07-29T21:35:50;17.20;99.90
51884;DHT22;37915;53.254;6.598;2022-07-29T21:38:15;17.20;99.90
51884;DHT22;37915;53.254;6.598;2022-07-29T21:40:46;17.20;99.90
51884;DHT22;37915;53.254;6.598;2022-07-29T21:43:12;17.10;99.90
51884;DHT22;37915;53.254;6.598;2022-07-29T21:45:38;17.10;99.90
51884;DHT22;37915;53.254;6.598;2022-07-29T21:48:04;17.00;99.90
51884;DHT22;37915;53.254;6.598;2022-07-29T21:50:29;17.00;99.90
51884;DHT22;37915;53.254;6.598;2022-07-29T21:52:55;16.90;99.90
51884;DHT22;37915;53.254;6.598;2022-07-29T21:55:21;16.90;99.90
51884;DHT22;37915;53.254;6.598;2022-07-29T21:57:46;16.90;99.90
51884;DHT22;37915;53.254;6.598;2022-07-29T22:00:12;16.80;99.90
51884;DHT22;37915;53.254;6.598;2022-07-29T22:02:41;16.80;99.90
51884;DHT22;37915;53.254;6.598;2022-07-29T22:05:07;16.80;99.90
51884;DHT22;37915;53.254;6.598;2022-07-29T22:07:33;16.80;99.90
51884;DHT22;37915;53.254;6.598;2022-07-29T22:09:58;16.80;99.90
51884;DHT22;37915;53.254;6.598;2022-07-29T22:12:24;16.70;99.90
51884;DHT22;37915;53.254;6.598;2022-07-29T22:14:50;16.70;99.90